ADDS METAR Data INFO
IDs: Format: Raw Decoded Include TAF

Data at: 1840 UTC 17 Oct 2017

KAJG 171835Z AUTO 22006KT 10SM CLR 19/03 A3030 RMK AO2 T01890033
KAJG 171815Z AUTO 19007KT 10SM CLR 19/03 A3030 RMK AO2 T01850030
KAJG 171755Z AUTO 20006KT 10SM CLR 18/04 A3032 RMK AO2 T01830036 10185 20035
KAJG 171735Z AUTO 17004KT 10SM CLR 18/03 A3033 RMK AO2 T01800030
KAJG 171715Z AUTO 20009KT 10SM CLR 18/03 A3034 RMK AO2 T01770030
KAJG 171655Z AUTO 18009KT 10SM CLR 18/04 A3034 RMK AO2 T01760037
KAJG 171635Z AUTO 23007KT 10SM CLR 17/04 A3036 RMK AO2 T01700035
KAJG 171615Z AUTO 19009KT 10SM CLR 17/03 A3036 RMK AO2 T01650034
KAJG 171555Z AUTO 21009KT 10SM CLR 16/05 A3036 RMK AO2 T01620045
KAJG 171535Z AUTO 21008KT 10SM CLR 16/06 A3037 RMK AO2 T01560055
KAJG 171515Z AUTO 20006KT 10SM CLR 15/06 A3037 RMK AO2 T01490064
KAJG 171455Z AUTO 20003KT 10SM CLR 14/07 A3038 RMK AO2 T01370068
KAJG 171435Z AUTO 00000KT 10SM CLR 12/08 A3038 RMK AO2 T01180078
KAJG 171415Z AUTO 00000KT 10SM CLR 10/07 A3038 RMK AO2 T00980072
KAJG 171355Z AUTO 00000KT 10SM CLR 09/07 A3039 RMK AO2 T00850066
KAJG 171335Z AUTO 00000KT 10SM CLR 08/07 A3038 RMK AO2 T00750065
KAJG 171315Z AUTO 00000KT 10SM CLR 06/06 A3037 RMK AO2 T00630056
KAJG 171255Z AUTO 00000KT 10SM CLR 05/04 A3037 RMK AO2 T00500042
KAJG 171235Z AUTO 00000KT 10SM CLR 04/03 A3037 RMK AO2 T00370031
KAJG 171215Z AUTO 12003KT 10SM CLR 04/03 A3037 RMK AO2 T00350030
KAJG 171155Z AUTO 00000KT 4SM BR CLR 04/03 A3037 RMK AO2 T00350030 10060 20031
KAJG 171135Z AUTO 00000KT 7SM CLR 04/03 A3037 RMK AO2 T00350028
KAJG 171115Z AUTO 00000KT 10SM CLR 03/03 A3036 RMK AO2 T00320025
KAJG 171055Z AUTO 00000KT 10SM CLR 04/03 A3035 RMK AO2 T00360027
KAJG 171035Z AUTO 00000KT 10SM CLR 04/03 A3034 RMK AO2 T00380032
KAJG 171015Z AUTO 00000KT 10SM CLR 04/03 A3034 RMK AO2 T00370032
KAJG 170955Z AUTO 00000KT 10SM CLR 05/04 A3034 RMK AO2 T00460042
KAJG 170935Z AUTO 00000KT 10SM CLR 04/04 A3033 RMK AO2 T00440038
KAJG 170915Z AUTO 00000KT 10SM CLR 04/04 A3032 RMK AO2 T00410035
KAJG 170855Z AUTO 00000KT 10SM CLR 05/04 A3031 RMK AO2 T00460039
KAJG 170835Z AUTO 00000KT 10SM CLR 05/04 A3032 RMK AO2 T00470040
KAJG 170815Z AUTO 00000KT 10SM CLR 05/04 A3032 RMK AO2 T00500040
KAJG 170755Z AUTO 00000KT 10SM CLR 05/04 A3032 RMK AO2 T00480038
KAJG 170735Z AUTO 00000KT 10SM CLR 05/04 A3032 RMK AO2 T00500041
KAJG 170715Z AUTO 00000KT 10SM CLR 05/04 A3032 RMK AO2 T00510040
KAJG 170655Z AUTO 00000KT 10SM CLR 05/04 A3032 RMK AO2 T00510041
KAJG 170635Z AUTO 00000KT 10SM CLR 06/05 A3032 RMK AO2 T00550046
KAJG 170615Z AUTO 00000KT 10SM CLR 06/05 A3032 RMK AO2 T00550047
KAJG 170555Z AUTO 00000KT 10SM CLR 06/05 A3031 RMK AO2 T00580046 10124 20057 401710051
KAJG 170535Z AUTO 00000KT 10SM CLR 06/05 A3032 RMK AO2 T00590047
KAJG 170515Z AUTO 00000KT 10SM CLR 06/05 A3032 RMK AO2 T00580047
KAJG 170455Z AUTO 00000KT 10SM CLR 06/06 A3032 RMK AO2 T00620055
KAJG 170435Z AUTO 00000KT 10SM CLR 07/06 A3032 RMK AO2 T00650057
KAJG 170415Z AUTO 00000KT 10SM CLR 06/05 A3033 RMK AO2 T00620052
KAJG 170355Z AUTO 00000KT 10SM CLR 07/05 A3033 RMK AO2 T00650050
KAJG 170335Z AUTO 00000KT 10SM CLR 07/05 A3033 RMK AO2 T00700049
KAJG 170315Z AUTO 00000KT 10SM CLR 07/05 A3032 RMK AO2 T00680050
KAJG 170255Z AUTO 00000KT 10SM CLR 08/06 A3032 RMK AO2 T00770055
KAJG 170235Z AUTO 00000KT 10SM CLR 08/06 A3032 RMK AO2 T00790055
KAJG 170215Z AUTO 00000KT 10SM CLR 08/06 A3032 RMK AO2 T00760055
KAJG 170155Z AUTO 00000KT 10SM CLR 08/06 A3032 RMK AO2 T00810058
KAJG 170135Z AUTO 00000KT 10SM CLR 09/06 A3031 RMK AO2 T00900055
KAJG 170115Z AUTO 00000KT 10SM CLR 10/05 A3031 RMK AO2 T00960053
KAJG 170055Z AUTO 00000KT 10SM CLR 10/06 A3031 RMK AO2 T00960057
KAJG 170035Z AUTO 00000KT 10SM CLR 10/05 A3031 RMK AO2 T01040049
KAJG 170015Z AUTO 00000KT 10SM CLR 12/06 A3031 RMK AO2 T01170057
KAJG 162355Z AUTO 00000KT 10SM CLR 12/04 A3031 RMK AO2 T01230041 10171 20116
KAJG 162335Z AUTO 00000KT 10SM CLR 14/03 A3030 RMK AO2 T01370033
KAJG 162315Z AUTO 00000KT 10SM CLR 14/03 A3030 RMK AO2 T01430026
KAJG 162255Z AUTO 36003KT 10SM CLR 16/02 A3030 RMK AO2 T01550019
KAJG 162235Z AUTO 33005KT 10SM CLR 16/02 A3030 RMK AO2 T01580016
KAJG 162215Z AUTO 33005KT 10SM CLR 16/02 A3030 RMK AO2 T01630017
KAJG 162155Z AUTO 35004KT 10SM CLR 17/02 A3031 RMK AO2 T01660016
KAJG 162135Z AUTO 34004KT 10SM CLR 17/01 A3031 RMK AO2 T01690012
KAJG 162115Z AUTO 31009KT 10SM CLR 17/01 A3031 RMK AO2 T01690012
KAJG 162055Z AUTO 00000KT 10SM CLR 17/01 A3031 RMK AO2 T01680008
KAJG 162035Z AUTO 32007KT 10SM CLR 17/01 A3031 RMK AO2 T01710014
KAJG 162015Z AUTO 31006KT 10SM CLR 17/02 A3032 RMK AO2 T01700016
KAJG 161955Z AUTO 03006KT 10SM CLR 17/02 A3032 RMK AO2 T01690020
KAJG 161935Z AUTO 31006KT 10SM CLR 17/03 A3032 RMK AO2 T01690029
KAJG 161915Z AUTO 35005KT 10SM SCT055 17/03 A3033 RMK AO2 T01660032
KAJG 161855Z AUTO 33003KT 10SM CLR 16/03 A3034 RMK AO2 T01630030
KAJG 161835Z AUTO 04005KT 10SM CLR 16/03 A3035 RMK AO2 T01590028
KAJG 161815Z AUTO 32004KT 10SM CLR 16/04 A3036 RMK AO2 T01570038
KAJG 161755Z AUTO 36006KT 10SM CLR 15/04 A3037 RMK AO2 T01530036 10154 20051
KAJG 161735Z AUTO 31003KT 10SM CLR 15/03 A3037 RMK AO2 T01490033
KAJG 161715Z AUTO 00000KT 10SM CLR 15/04 A3038 RMK AO2 T01450036
KAJG 161655Z AUTO 30004KT 10SM CLR 14/04 A3038 RMK AO2 T01420040
KAJG 161635Z AUTO 00000KT 10SM CLR 14/04 A3039 RMK AO2 T01380037
KAJG 161615Z AUTO 04005KT 10SM CLR 14/05 A3039 RMK AO2 T01350045
KAJG 161555Z AUTO 31004KT 10SM CLR 13/05 A3039 RMK AO2 T01300047
KAJG 161535Z AUTO 36004KT 10SM CLR 13/05 A3040 RMK AO2 T01270051
KAJG 161515Z AUTO 36007KT 10SM CLR 12/05 A3039 RMK AO2 T01220052
KAJG 161455Z AUTO 35007KT 10SM CLR 12/05 A3039 RMK AO2 T01170053
KAJG 161435Z AUTO 35007KT 10SM CLR 11/06 A3039 RMK AO2 T01110056
KAJG 161415Z AUTO 35007KT 10SM CLR 10/05 A3038 RMK AO2 T01040053
KAJG 161355Z AUTO 34008KT 10SM CLR 10/06 A3038 RMK AO2 T00960056
KAJG 161335Z AUTO 34006KT 10SM CLR 09/06 A3037 RMK AO2 T00850055
KAJG 161315Z AUTO 33007KT 10SM CLR 08/05 A3037 RMK AO2 T00750054
KAJG 161255Z AUTO 33005KT 10SM CLR 07/05 A3036 RMK AO2 T00660052
KAJG 161235Z AUTO 00000KT 10SM CLR 06/05 A3036 RMK AO2 T00550045
KAJG 161215Z AUTO 33003KT 10SM CLR 05/04 A3035 RMK AO2 T00520041
KAJG 161155Z AUTO 33004KT 10SM CLR 06/04 A3035 RMK AO2 T00600044 10099 20060
KAJG 161135Z AUTO 33006KT 10SM CLR 06/04 A3034 RMK AO2 T00610044
KAJG 161115Z AUTO 33006KT 10SM CLR 07/05 A3034 RMK AO2 T00650046
KAJG 161055Z AUTO 34006KT 10SM CLR 06/05 A3034 RMK AO2 T00610045
KAJG 161035Z AUTO 33006KT 10SM CLR 07/05 A3033 RMK AO2 T00650046
KAJG 161015Z AUTO 33007KT 10SM CLR 07/05 A3033 RMK AO2 T00710047
KAJG 160955Z AUTO 32007KT 10SM CLR 08/05 A3032 RMK AO2 T00760049
KAJG 160935Z AUTO 32006KT 10SM CLR 08/05 A3031 RMK AO2 T00750050
KAJG 160915Z AUTO 32006KT 10SM CLR 08/05 A3031 RMK AO2 T00750050
KAJG 160855Z AUTO 31006KT 10SM CLR 08/05 A3030 RMK AO2 T00800052
KAJG 160835Z AUTO 32006KT 10SM CLR 08/05 A3030 RMK AO2 T00770052
KAJG 160815Z AUTO 32007KT 10SM CLR 08/06 A3030 RMK AO2 T00820055
KAJG 160755Z AUTO 31005KT 10SM CLR 09/06 A3030 RMK AO2 T00860057
KAJG 160735Z AUTO 30006KT 10SM CLR 09/06 A3030 RMK AO2 T00850060
KAJG 160715Z AUTO 31005KT 10SM SCT046 09/06 A3030 RMK AO2 T00890062
KAJG 160655Z AUTO 30007KT 10SM OVC046 10/06 A3030 RMK AO2 T00950063